createdAt,value
2023-03-20T00:00:53.399Z,4.88
2023-03-20T00:03:56.637Z,4.40
2023-03-20T00:06:59.274Z,5.57
2023-03-20T00:10:02.923Z,5.28
2023-03-20T00:13:06.977Z,5.93
2023-03-20T00:16:11.617Z,6.45
2023-03-20T00:19:30.277Z,6.13
2023-03-20T00:22:35.781Z,13.50
2023-03-20T00:25:40.390Z,5.97
2023-03-20T00:28:44.731Z,5.68
2023-03-20T00:31:47.780Z,4.43
2023-03-20T00:34:50.637Z,5.30
2023-03-20T00:37:53.519Z,5.82
2023-03-20T00:40:56.270Z,3.95
2023-03-20T00:44:01.340Z,7.82
2023-03-20T00:47:13.879Z,19.67
2023-03-20T00:50:22.520Z,5.43
2023-03-20T00:53:25.032Z,5.10
2023-03-20T00:56:36.776Z,5.68
2023-03-20T00:59:42.672Z,6.75
2023-03-20T01:02:46.140Z,4.25
2023-03-20T01:05:50.081Z,5.60
2023-03-20T01:08:52.849Z,5.43
2023-03-20T01:11:55.438Z,5.13
2023-03-20T01:14:58.894Z,5.20
2023-03-20T01:18:01.870Z,4.28
2023-03-20T01:21:04.547Z,5.50
2023-03-20T01:24:07.436Z,4.75
2023-03-20T01:27:20.054Z,5.15
2023-03-20T01:30:25.669Z,3.97
2023-03-20T01:33:29.614Z,8.38
2023-03-20T01:36:32.154Z,6.53
2023-03-20T01:39:36.478Z,6.10
2023-03-20T01:42:39.918Z,5.75
2023-03-20T01:45:53.570Z,7.82
2023-03-20T01:49:08.159Z,6.70
2023-03-20T01:52:11.685Z,6.35
2023-03-20T01:55:14.434Z,7.40
2023-03-20T01:58:23.154Z,5.32
2023-03-20T02:01:28.294Z,5.85
2023-03-20T02:04:37.734Z,8.10
2023-03-20T02:07:49.997Z,5.80
2023-03-20T02:10:55.533Z,5.75
2023-03-20T02:14:03.021Z,6.55
2023-03-20T02:17:13.620Z,5.85
2023-03-20T02:20:30.933Z,8.18
2023-03-20T02:24:05.812Z,5.55
2023-03-20T02:27:35.491Z,6.43
2023-03-20T02:30:41.082Z,4.35
2023-03-20T02:33:55.979Z,6.78
2023-03-20T02:37:23.381Z,6.60
2023-03-20T02:40:25.891Z,8.55
2023-03-20T02:43:46.831Z,11.60
2023-03-20T02:47:12.886Z,10.20
2023-03-20T02:50:50.561Z,6.97
2023-03-20T02:53:58.479Z,13.73
2023-03-20T02:57:08.765Z,4.85
2023-03-20T03:00:36.801Z,10.98
2023-03-20T03:03:52.276Z,6.47
2023-03-20T03:06:56.504Z,7.97
2023-03-20T03:10:18.431Z,7.50
2023-03-20T03:13:29.350Z,23.73
2023-03-20T03:16:35.617Z,7.85
2023-03-20T03:19:40.165Z,12.27
2023-03-20T03:22:42.752Z,11.00
2023-03-20T03:25:47.006Z,5.20
2023-03-20T03:28:53.918Z,6.95
2023-03-20T03:31:56.766Z,8.07
2023-03-20T03:35:00.986Z,13.23
2023-03-20T03:38:18.881Z,9.48
2023-03-20T03:41:50.032Z,9.95
2023-03-20T03:45:00.583Z,13.80
2023-03-20T03:48:15.690Z,10.90
2023-03-20T03:51:21.682Z,11.35
2023-03-20T03:54:37.343Z,9.60
2023-03-20T03:58:03.914Z,10.48
2023-03-20T04:01:07.939Z,9.27
2023-03-20T04:04:13.036Z,12.23
2023-03-20T04:07:16.159Z,9.25
2023-03-20T04:10:19.972Z,8.18
2023-03-20T04:13:22.685Z,13.50
2023-03-20T04:16:25.961Z,8.32
2023-03-20T04:19:29.061Z,26.48
2023-03-20T04:22:34.921Z,47.50
2023-03-20T04:25:42.999Z,47.50
2023-03-20T04:28:45.864Z,36.60
2023-03-20T04:32:07.423Z,18.50
2023-03-20T04:35:35.176Z,16.85
2023-03-20T04:38:47.526Z,9.45
2023-03-20T04:41:50.038Z,12.85
2023-03-20T04:44:52.861Z,17.20
2023-03-20T04:47:55.562Z,14.15
2023-03-20T04:50:59.344Z,21.10
2023-03-20T04:54:14.692Z,26.25
2023-03-20T04:57:18.645Z,12.80
2023-03-20T05:00:21.790Z,15.18
2023-03-20T05:03:24.723Z,9.57
2023-03-20T05:06:28.587Z,10.73
2023-03-20T05:09:31.781Z,10.30
2023-03-20T05:12:37.962Z,8.10
2023-03-20T05:16:02.227Z,11.00
2023-03-20T05:19:19.999Z,11.93
2023-03-20T05:22:49.395Z,13.73
2023-03-20T05:26:09.524Z,12.38
2023-03-20T05:29:30.435Z,17.70
2023-03-20T05:32:53.167Z,12.90
2023-03-20T05:36:06.392Z,15.05
2023-03-20T05:39:24.154Z,14.07
2023-03-20T05:42:53.215Z,10.40
2023-03-20T05:46:13.634Z,9.90
2023-03-20T05:49:28.285Z,12.65
2023-03-20T05:53:06.446Z,35.07
2023-03-20T05:56:24.831Z,30.80
2023-03-20T05:59:45.990Z,13.77
2023-03-20T06:03:02.401Z,20.77
2023-03-20T06:06:24.840Z,8.52
2023-03-20T06:09:30.117Z,9.15
2023-03-20T06:12:34.174Z,9.70
2023-03-20T06:15:37.423Z,13.93
2023-03-20T06:18:49.430Z,7.47
2023-03-20T06:21:52.217Z,15.10
2023-03-20T06:24:57.541Z,14.10
2023-03-20T06:28:06.572Z,13.13
2023-03-20T06:31:10.237Z,11.13
2023-03-20T06:34:13.322Z,10.68
2023-03-20T06:37:20.963Z,7.72
2023-03-20T06:40:25.755Z,9.00
2023-03-20T06:43:28.526Z,11.13
2023-03-20T06:46:31.450Z,10.57
2023-03-20T06:49:34.171Z,10.50
2023-03-20T06:52:36.695Z,9.00
2023-03-20T06:56:04.403Z,20.38
2023-03-20T06:59:07.700Z,10.57
2023-03-20T07:02:11.788Z,9.98
2023-03-20T07:05:16.223Z,8.73
2023-03-20T07:08:19.314Z,8.10
2023-03-20T07:11:22.650Z,9.35
2023-03-20T07:14:28.984Z,12.05
2023-03-20T07:17:40.243Z,8.82
2023-03-20T07:20:43.630Z,10.23
2023-03-20T07:23:46.779Z,10.25
2023-03-20T07:26:50.198Z,8.90
2023-03-20T07:29:53.679Z,8.75
2023-03-20T07:32:56.439Z,12.65
2023-03-20T07:36:04.313Z,8.82
2023-03-20T07:39:07.223Z,13.00
2023-03-20T07:42:11.833Z,9.43
2023-03-20T07:45:21.221Z,12.57
2023-03-20T07:48:23.839Z,10.50
2023-03-20T07:51:26.946Z,17.65
2023-03-20T07:54:29.620Z,12.57
2023-03-20T07:57:33.840Z,12.18
2023-03-20T08:00:36.596Z,8.68
2023-03-20T08:03:40.025Z,14.43
2023-03-20T08:06:44.029Z,12.98
2023-03-20T08:09:46.807Z,9.88
2023-03-20T08:12:49.490Z,11.10
2023-03-20T08:15:52.141Z,10.50
2023-03-20T08:19:01.484Z,16.15
2023-03-20T08:22:07.590Z,14.35
2023-03-20T08:25:10.740Z,16.80
2023-03-20T08:28:13.388Z,15.82
2023-03-20T08:31:17.946Z,12.70
2023-03-20T08:34:22.911Z,14.88
2023-03-20T08:37:27.100Z,12.35
2023-03-20T08:40:30.329Z,15.68
2023-03-20T08:43:32.976Z,16.42
2023-03-20T08:46:35.636Z,14.60
2023-03-20T08:49:38.243Z,14.27
2023-03-20T08:52:44.465Z,21.30
2023-03-20T08:55:54.270Z,11.90
2023-03-20T08:58:57.248Z,16.77
2023-03-20T09:01:59.910Z,13.05
2023-03-20T09:05:02.656Z,13.18
2023-03-20T09:08:05.769Z,16.77
2023-03-20T09:11:08.446Z,13.90
2023-03-20T09:14:11.149Z,18.10
2023-03-20T09:17:13.854Z,15.45
2023-03-20T09:20:16.602Z,18.85
2023-03-20T09:23:19.652Z,17.15
2023-03-20T09:26:22.856Z,17.52
2023-03-20T09:29:25.596Z,19.55
2023-03-20T09:32:28.132Z,16.17
2023-03-20T09:35:31.369Z,16.58
2023-03-20T09:38:34.074Z,18.52
2023-03-20T09:41:52.966Z,13.43
2023-03-20T09:45:07.941Z,16.20
2023-03-20T09:48:28.977Z,17.48
2023-03-20T09:51:36.847Z,16.05
2023-03-20T09:54:54.201Z,12.48
2023-03-20T09:57:59.494Z,15.45
2023-03-20T10:01:04.476Z,21.80
2023-03-20T10:04:10.086Z,13.85
2023-03-20T10:07:14.202Z,13.07
2023-03-20T10:10:20.776Z,17.85
2023-03-20T10:13:38.604Z,14.63
2023-03-20T10:16:59.108Z,12.43
2023-03-20T10:20:14.365Z,11.57
2023-03-20T10:23:24.823Z,14.50
2023-03-20T10:26:28.012Z,10.02
2023-03-20T10:30:05.965Z,10.07
2023-03-20T10:33:14.651Z,12.38
2023-03-20T10:36:54.561Z,10.95
2023-03-20T10:40:00.117Z,8.75
2023-03-20T10:43:25.041Z,11.38
2023-03-20T10:46:30.864Z,10.55
2023-03-20T10:49:57.148Z,13.75
2023-03-20T10:53:00.793Z,17.30
2023-03-20T10:56:09.505Z,13.85
2023-03-20T10:59:29.205Z,12.05
2023-03-20T11:02:35.388Z,12.25
2023-03-20T11:05:42.276Z,11.00
2023-03-20T11:08:48.738Z,10.40
2023-03-20T11:11:53.818Z,11.63
2023-03-20T11:15:01.108Z,11.10
2023-03-20T11:18:11.168Z,12.38
2023-03-20T11:21:23.294Z,11.32
2023-03-20T11:24:41.260Z,10.43
2023-03-20T11:27:43.903Z,9.13
2023-03-20T11:31:03.603Z,14.25
2023-03-20T11:34:16.151Z,8.25
2023-03-20T11:37:29.110Z,8.25
2023-03-20T11:40:32.873Z,9.43
2023-03-20T11:43:38.609Z,11.45
2023-03-20T11:46:41.187Z,8.98
2023-03-20T11:49:50.658Z,11.20
2023-03-20T11:52:53.919Z,5.25
2023-03-20T11:56:23.235Z,8.45
2023-03-20T11:59:34.860Z,5.70
2023-03-20T12:02:38.375Z,7.22
2023-03-20T12:05:41.082Z,8.18
2023-03-20T12:08:49.324Z,9.85
2023-03-20T12:12:01.412Z,9.90
2023-03-20T12:15:13.434Z,11.70
2023-03-20T12:18:40.064Z,12.00
2023-03-20T12:21:48.450Z,8.82
2023-03-20T12:25:09.990Z,12.13
2023-03-20T12:28:21.861Z,9.65
2023-03-20T12:31:26.825Z,6.53
2023-03-20T12:34:36.089Z,8.20
2023-03-20T12:37:38.780Z,8.95
2023-03-20T12:40:44.070Z,5.45
2023-03-20T12:44:23.384Z,6.35
2023-03-20T12:47:44.491Z,6.75
2023-03-20T12:51:17.105Z,7.07
2023-03-20T12:54:37.328Z,6.38
2023-03-20T12:58:11.016Z,7.97
2023-03-20T13:01:38.196Z,4.95
2023-03-20T13:04:46.889Z,8.55
2023-03-20T13:08:02.975Z,5.70
2023-03-20T13:11:14.852Z,7.13
2023-03-20T13:14:30.867Z,12.95
2023-03-20T13:18:10.659Z,12.18
2023-03-20T13:21:17.370Z,15.30
2023-03-20T13:24:28.559Z,7.68
2023-03-20T13:27:41.950Z,4.97
2023-03-20T13:31:16.022Z,10.30
2023-03-20T13:34:54.100Z,4.68
2023-03-20T13:38:03.705Z,5.50
2023-03-20T13:41:10.201Z,5.93
2023-03-20T13:44:15.515Z,3.67
2023-03-20T13:47:25.184Z,5.45
2023-03-20T13:51:05.687Z,5.28
2023-03-20T13:54:20.622Z,4.20
2023-03-20T13:57:36.490Z,5.75
2023-03-20T14:00:47.611Z,5.35
2023-03-20T14:03:51.025Z,12.73
2023-03-20T14:06:55.651Z,7.35
2023-03-20T14:09:58.394Z,7.80
2023-03-20T14:13:03.652Z,4.38
2023-03-20T14:16:10.894Z,5.20
2023-03-20T14:19:22.131Z,5.63
2023-03-20T14:22:30.115Z,6.72
2023-03-20T14:25:40.648Z,6.13
2023-03-20T14:29:01.043Z,6.45
2023-03-20T14:32:12.904Z,8.80
2023-03-20T14:35:18.400Z,7.82
2023-03-20T14:38:21.057Z,7.30
2023-03-20T14:41:50.086Z,12.38
2023-03-20T14:45:08.017Z,9.15
2023-03-20T14:48:37.902Z,10.77
2023-03-20T14:51:45.060Z,13.55
2023-03-20T14:54:54.961Z,11.40
2023-03-20T14:58:06.477Z,9.75
2023-03-20T15:01:19.590Z,12.68
2023-03-20T15:04:36.357Z,11.93
2023-03-20T15:07:39.857Z,13.90
2023-03-20T15:10:52.507Z,8.70
2023-03-20T15:13:56.207Z,12.35
2023-03-20T15:17:00.584Z,9.95
2023-03-20T15:20:07.198Z,9.27
2023-03-20T15:23:09.994Z,11.00
2023-03-20T15:26:18.023Z,10.88
2023-03-20T15:29:20.789Z,11.00
2023-03-20T15:32:24.149Z,10.90
2023-03-20T15:35:27.793Z,14.25
2023-03-20T15:38:33.551Z,10.27
2023-03-20T15:41:38.489Z,25.65
2023-03-20T15:44:43.210Z,19.48
2023-03-20T15:47:45.986Z,12.18
2023-03-20T15:51:00.712Z,12.43
2023-03-20T15:54:08.114Z,13.57
2023-03-20T15:57:19.897Z,13.15
2023-03-20T16:00:45.934Z,17.25
2023-03-20T16:03:49.386Z,11.68
2023-03-20T16:07:00.633Z,14.63
2023-03-20T16:10:03.525Z,15.02
2023-03-20T16:13:08.013Z,14.60
2023-03-20T16:16:20.424Z,13.23
2023-03-20T16:19:25.129Z,14.25
2023-03-20T16:22:31.123Z,25.20
2023-03-20T16:25:35.653Z,18.53
2023-03-20T16:28:39.054Z,48.05
2023-03-20T16:31:54.637Z,109.53
2023-03-20T16:34:58.691Z,148.20
2023-03-20T16:38:05.910Z,61.05
2023-03-20T16:41:16.686Z,22.02
2023-03-20T16:44:29.312Z,16.58
2023-03-20T16:47:36.690Z,14.85
2023-03-20T16:50:40.939Z,19.10
2023-03-20T16:53:49.210Z,17.55
2023-03-20T16:56:53.760Z,12.98
2023-03-20T17:00:02.177Z,20.50
2023-03-20T17:03:26.910Z,22.65
2023-03-20T17:06:37.961Z,14.23
2023-03-20T17:09:55.158Z,12.82
2023-03-20T17:12:57.871Z,13.13
2023-03-20T17:16:00.763Z,14.43
2023-03-20T17:19:16.449Z,40.00
2023-03-20T17:22:22.507Z,10.90
2023-03-20T17:25:25.358Z,12.90
2023-03-20T17:28:34.669Z,12.93
2023-03-20T17:31:37.485Z,9.55
2023-03-20T17:34:40.817Z,10.65
2023-03-20T17:37:44.137Z,11.30
2023-03-20T17:40:50.410Z,14.15
2023-03-20T17:43:54.281Z,20.00
2023-03-20T17:46:59.339Z,10.80
2023-03-20T17:50:02.309Z,10.20
2023-03-20T17:53:05.154Z,9.77
2023-03-20T17:56:15.313Z,13.70
2023-03-20T17:59:18.184Z,13.57
2023-03-20T18:02:21.218Z,9.48
2023-03-20T18:05:24.455Z,9.30
2023-03-20T18:08:27.163Z,10.98
2023-03-20T18:11:30.298Z,13.00
2023-03-20T18:14:33.371Z,8.98
2023-03-20T18:17:36.386Z,9.10
2023-03-20T18:20:41.641Z,9.32
2023-03-20T18:23:45.394Z,9.05
2023-03-20T18:26:48.775Z,10.27
2023-03-20T18:29:52.663Z,9.20
2023-03-20T18:32:55.739Z,8.52
2023-03-20T18:36:00.802Z,7.95
2023-03-20T18:39:05.203Z,9.90
2023-03-20T18:42:08.449Z,7.63
2023-03-20T18:45:12.105Z,9.30
2023-03-20T18:48:15.546Z,10.23
2023-03-20T18:51:19.126Z,8.90
2023-03-20T18:54:21.858Z,11.77
2023-03-20T18:57:24.594Z,10.25
2023-03-20T19:00:43.194Z,12.65
2023-03-20T19:03:47.131Z,12.27
2023-03-20T19:06:50.039Z,11.40
2023-03-20T19:09:52.799Z,9.77
2023-03-20T19:12:56.294Z,9.80
2023-03-20T19:15:59.307Z,14.35
2023-03-20T19:19:04.474Z,13.00
2023-03-20T19:22:13.012Z,11.85
2023-03-20T19:25:18.633Z,13.70
2023-03-20T19:28:40.653Z,13.20
2023-03-20T19:31:44.061Z,19.67
2023-03-20T19:35:35.298Z,12.38
2023-03-20T19:38:14.953Z,15.90
2023-03-20T19:41:19.933Z,18.20
2023-03-20T19:44:22.798Z,14.43
2023-03-20T19:47:25.681Z,15.50
2023-03-20T19:50:34.246Z,18.70
2023-03-20T19:53:37.000Z,18.67
2023-03-20T19:56:40.476Z,19.08
2023-03-20T19:59:44.030Z,20.15
2023-03-20T20:02:47.895Z,16.23
2023-03-20T20:05:53.165Z,22.05
2023-03-20T20:08:56.050Z,18.02
2023-03-20T20:11:58.966Z,17.65
2023-03-20T20:15:01.802Z,17.00
2023-03-20T20:18:04.649Z,14.60
2023-03-20T20:24:30.332Z,21.27
2023-03-20T20:27:33.674Z,15.85
2023-03-20T20:30:37.247Z,16.75
2023-03-20T20:33:41.123Z,16.48
2023-03-20T20:40:10.922Z,20.48
2023-03-20T20:43:39.042Z,17.75
2023-03-20T20:46:36.702Z,16.00
2023-03-20T20:49:40.140Z,14.35
2023-03-20T20:52:43.538Z,16.27
2023-03-20T20:55:46.081Z,18.58
2023-03-20T20:58:48.693Z,19.05
2023-03-20T21:01:52.264Z,16.08
2023-03-20T21:04:55.569Z,19.20
2023-03-20T21:07:58.400Z,22.08
2023-03-20T21:11:04.362Z,20.63
2023-03-20T21:14:07.051Z,22.10
2023-03-20T21:17:10.757Z,20.83
2023-03-20T21:20:14.001Z,18.88
2023-03-20T21:23:16.927Z,19.60
2023-03-20T21:26:19.916Z,16.90
2023-03-20T21:29:22.629Z,20.40
2023-03-20T21:32:25.522Z,20.27
2023-03-20T21:35:28.962Z,19.38
2023-03-20T21:41:55.891Z,18.10
2023-03-20T21:45:53.275Z,20.30
2023-03-20T21:49:03.864Z,15.43
2023-03-20T22:02:09.308Z,16.13
2023-03-20T22:09:30.856Z,17.92
2023-03-20T22:23:00.386Z,23.73
2023-03-20T22:26:18.271Z,11.27
2023-03-20T22:36:36.055Z,29.40
2023-03-20T22:40:15.223Z,28.40
2023-03-20T22:46:09.961Z,35.20
2023-03-20T22:49:15.067Z,14.70
2023-03-20T22:52:31.765Z,19.42
2023-03-20T22:55:37.856Z,13.20
2023-03-20T22:58:40.781Z,8.75
2023-03-20T23:01:43.330Z,8.27
2023-03-20T23:04:48.233Z,11.15
2023-03-20T23:07:50.921Z,29.95
2023-03-20T23:10:53.526Z,7.78
2023-03-20T23:13:56.531Z,8.85
2023-03-20T23:16:59.664Z,9.77
2023-03-20T23:20:11.326Z,5.20
2023-03-20T23:23:15.650Z,8.23
2023-03-20T23:26:22.483Z,7.97
2023-03-20T23:29:25.450Z,5.80
2023-03-20T23:32:28.000Z,23.15
2023-03-20T23:35:30.511Z,5.95
2023-03-20T23:38:33.157Z,13.10
2023-03-20T23:42:02.429Z,15.45
2023-03-20T23:45:04.454Z,6.38
2023-03-20T23:48:13.313Z,5.82
2023-03-20T23:51:15.895Z,9.55
2023-03-20T23:54:18.566Z,12.65
2023-03-20T23:57:21.182Z,5.75
